Allegre, Kentucky
Current Conditions -  °F | °C
As of 7:58 PM on Saturday 20 Dec 2014 (Local Time) from KHOP Reporting Station
Clear Clear  
Wind Chill: 26°   Ceiling: Unl
Heat Index: 31°   Visibility: 10mi
Dew Point: 27°   Wind: 5mph
Humidity: 85%   Direction: 20°NNE
Pressure: 30.27"   Gusts: NA
Location:  36.93°N, 87.22°W
Report Text: KHOP 210158Z AUTO 02004KT 10SM CLR 00/M03 A3027 RMK AO2 SLP258 T10051028
Loading
Personal Weather Stations






























Interactive Weather Map New forecast layout! Learn more

10-Day Weather Forecast

Advertisements
Track Severe Weather on mobile